< < Back
Terminal Aerodrome Forecast


Current Version              Previous Versions:   1  2  3  4  5  6  7  8  9  

Terminal Aerodrome Forecast

258
FTUS44 KOHX 020500
TAFCSV
TAF
KCSV 020536Z 0206/0306 17007KT P6SM BKN080
     FM021500 18009G16KT P6SM VCSH BKN035
     FM021800 18012G25KT P6SM BKN050=



Latest METAR

894
SAUS70 KWBC 020700 RRE
MTRCSV
METAR KCSV 020653Z AUTO 00000KT 10SM CLR 14/M04 A3007 RMK AO2 SLP171
T01391039


USA.gov is the U.S. government's official web portal to all federal, state and local government web resources and services.